Time;durP1;ratioP1;P1;durP2;ratioP2;P2;SDS_P1;SDS_P2;PMS_P1;PMS_P2;Temp;Humidity;BMP_temperature;BMP_pressure;BME280_temperature;BME280_humidity;BME280_pressure;Samples;Min_cycle;Max_cycle;Signal;HPM_P1;HPM_P2
2024/02/20 00:11:45;;;;;;;18.50;8.50;;;;;;;6.69;99.57;100275.15;682001;1262;138909;-79
2024/02/20 00:26:49;;;;;;;11.60;6.20;;;;;;;6.69;99.93;100275.16;681796;1265;139563;-79
2024/02/20 00:41:53;;;;;;;12.60;6.60;;;;;;;6.76;100.00;100275.34;681907;1261;139419;-79
2024/02/20 00:56:56;;;;;;;17.20;7.90;;;;;;;6.88;100.00;100274.97;681919;1261;139582;-79
2024/02/20 01:12:00;;;;;;;25.90;9.30;;;;;;;6.95;100.00;100261.77;681989;1261;138908;-79
2024/02/20 01:27:04;;;;;;;30.40;9.60;;;;;;;7.02;100.00;100254.81;681973;1261;139154;-80
2024/02/20 01:42:07;;;;;;;31.90;11.20;;;;;;;7.08;100.00;100250.72;681870;1261;139971;-79
2024/02/20 01:57:11;;;;;;;21.00;9.20;;;;;;;7.19;100.00;100244.89;681961;1262;139183;-79
2024/02/20 02:12:15;;;;;;;20.20;10.20;;;;;;;7.28;100.00;100238.46;681810;1263;139491;-80
2024/02/20 02:27:19;;;;;;;12.10;6.30;;;;;;;7.48;100.00;100229.16;681871;1262;140545;-79
2024/02/20 02:42:23;;;;;;;7.50;4.60;;;;;;;7.66;100.00;100227.48;681833;1261;138831;-79
2024/02/20 02:57:27;;;;;;;6.40;4.90;;;;;;;7.85;100.00;100222.67;682145;1261;139404;-80
2024/02/20 03:12:31;;;;;;;6.80;4.80;;;;;;;7.95;100.00;100224.20;681874;1263;139641;-79
2024/02/20 03:27:38;;;;;;;7.50;4.20;;;;;;;8.04;100.00;100226.11;681987;1263;139275;-79
2024/02/20 03:42:42;;;;;;;7.00;4.10;;;;;;;8.05;100.00;100231.63;681878;1261;138535;-80
2024/02/20 03:57:46;;;;;;;6.20;4.00;;;;;;;8.05;100.00;100231.27;681991;1262;138441;-80
2024/02/20 04:12:51;;;;;;;6.70;4.50;;;;;;;8.07;100.00;100234.06;681900;1263;138529;-81
2024/02/20 04:27:54;;;;;;;9.20;7.20;;;;;;;8.00;100.00;100242.81;681934;1262;138632;-80
2024/02/20 04:42:58;;;;;;;56.10;45.50;;;;;;;8.18;100.00;100248.69;681968;1261;139185;-80
2024/02/20 04:58:02;;;;;;;27.70;18.50;;;;;;;8.51;100.00;100260.81;681897;1264;139217;-81
2024/02/20 05:13:07;;;;;;;63.10;46.70;;;;;;;8.57;100.00;100267.70;681814;1264;138974;-81
2024/02/20 05:28:11;;;;;;;24.10;12.90;;;;;;;8.52;100.00;100277.46;681993;1264;139962;-80
2024/02/20 05:43:15;;;;;;;26.00;10.00;;;;;;;8.47;100.00;100284.08;682032;1266;139398;-81
2024/02/20 05:58:18;;;;;;;17.50;7.60;;;;;;;8.31;100.00;100288.09;682080;1263;140285;-80
2024/02/20 06:13:23;;;;;;;23.20;8.70;;;;;;;8.21;100.00;100297.30;681782;1264;138728;-80
2024/02/20 06:28:26;;;;;;;22.80;7.60;;;;;;;8.24;100.00;100305.74;681837;1267;141721;-80
2024/02/20 06:43:30;;;;;;;14.20;7.00;;;;;;;8.24;100.00;100321.42;681984;1266;138876;-80
2024/02/20 06:58:33;;;;;;;9.60;4.60;;;;;;;8.25;100.00;100343.17;681899;1268;139731;-80
2024/02/20 07:13:39;;;;;;;24.40;7.50;;;;;;;8.27;100.00;100351.31;681796;1264;139336;-80
2024/02/20 07:28:43;;;;;;;16.50;5.60;;;;;;;8.26;100.00;100361.48;681839;1261;138682;-79
2024/02/20 07:43:47;;;;;;;14.20;6.30;;;;;;;8.29;100.00;100371.17;681816;1263;141848;-79
2024/02/20 07:58:52;;;;;;;31.40;17.00;;;;;;;8.29;100.00;100377.98;682001;1265;140245;-80
2024/02/20 08:13:56;;;;;;;25.10;12.70;;;;;;;8.46;100.00;100378.98;681799;1261;138861;-80
2024/02/20 08:29:00;;;;;;;23.00;13.00;;;;;;;8.60;100.00;100385.91;681925;1267;140387;-80
2024/02/20 08:44:03;;;;;;;15.60;7.00;;;;;;;8.59;100.00;100393.83;681914;1265;140191;-80
2024/02/20 08:59:08;;;;;;;16.70;8.90;;;;;;;8.51;100.00;100396.37;681875;1265;141590;-80
2024/02/20 09:14:14;;;;;;;7.20;3.70;;;;;;;8.88;100.00;100403.84;681726;1264;138742;-79
2024/02/20 09:29:21;;;;;;;7.20;3.60;;;;;;;9.36;100.00;100417.79;681919;1268;139516;-79
2024/02/20 09:44:26;;;;;;;9.30;3.30;;;;;;;9.37;98.96;100432.42;681953;1263;140543;-78
2024/02/20 09:59:31;;;;;;;6.70;2.70;;;;;;;9.55;97.74;100441.80;681966;1264;140029;-79
2024/02/20 10:14:43;;;;;;;12.70;4.90;;;;;;;9.52;97.45;100451.06;681813;1265;140437;-79
2024/02/20 10:29:48;;;;;;;7.60;2.60;;;;;;;9.41;97.43;100454.39;682028;1266;139077;-79
2024/02/20 10:44:54;;;;;;;11.00;7.10;;;;;;;9.54;96.53;100456.02;681915;1265;139204;-79
2024/02/20 11:00:00;;;;;;;8.60;5.20;;;;;;;9.84;95.55;100453.69;681976;1265;139344;-78
2024/02/20 11:15:26;;;;;;;9.00;3.10;;;;;;;10.49;91.23;100450.45;682035;1264;139716;-79
2024/02/20 11:30:30;;;;;;;6.10;3.80;;;;;;;10.63;89.99;100458.70;681779;1268;181751;-78
2024/02/20 11:45:36;;;;;;;18.20;8.30;;;;;;;10.54;88.89;100454.04;681968;1262;140337;-77
2024/02/20 12:00:40;;;;;;;7.60;5.40;;;;;;;10.54;88.38;100455.33;681725;1264;140148;-78
2024/02/20 12:15:49;;;;;;;9.90;6.50;;;;;;;10.53;87.95;100450.82;681728;1267;139877;-80
2024/02/20 12:30:53;;;;;;;8.50;4.40;;;;;;;10.46;89.40;100452.52;681856;1267;139649;-81
2024/02/20 12:53:55;;;;;;;11.50;7.50;;;;;;;10.33;91.10;100462.45;660058;1301;544810;-81
2024/02/20 13:09:01;;;;;;;43.20;22.50;;;;;;;10.12;92.87;100464.55;673630;1272;139059;-80
2024/02/20 13:24:07;;;;;;;11.30;6.60;;;;;;;10.16;94.43;100460.06;674286;1272;139187;-82
2024/02/20 13:39:11;;;;;;;18.80;8.20;;;;;;;10.23;94.94;100463.07;677237;1271;138967;-80
2024/02/20 13:54:17;;;;;;;13.40;6.10;;;;;;;10.14;93.79;100468.41;671746;1275;139382;-80
2024/02/20 14:09:24;;;;;;;9.60;4.90;;;;;;;10.08;92.51;100476.05;675681;1272;139060;-79
2024/02/20 14:24:28;;;;;;;8.10;4.10;;;;;;;9.95;92.44;100491.30;675367;1271;138701;-81
2024/02/20 14:39:35;;;;;;;7.00;3.10;;;;;;;9.86;92.30;100497.21;674644;1275;138703;-80
2024/02/20 14:54:39;;;;;;;21.60;13.60;;;;;;;9.79;91.77;100507.43;675935;1271;139037;-80
2024/02/20 15:09:46;;;;;;;33.20;17.00;;;;;;;9.63;91.30;100514.44;675239;1275;139858;-79
2024/02/20 15:24:52;;;;;;;10.20;6.20;;;;;;;9.53;90.54;100530.81;675178;1272;140784;-79
2024/02/20 15:39:56;;;;;;;45.80;20.50;;;;;;;9.35;90.02;100540.58;674115;1272;139590;-79
2024/02/20 15:55:03;;;;;;;23.80;11.70;;;;;;;9.21;90.16;100562.61;676525;1275;139378;-79
2024/02/20 16:10:07;;;;;;;25.90;13.40;;;;;;;9.09;90.38;100571.44;680042;1267;138853;-79
2024/02/20 16:25:11;;;;;;;82.90;26.60;;;;;;;9.03;90.44;100584.22;680378;1268;139169;-80
2024/02/20 16:40:19;;;;;;;116.40;37.10;;;;;;;9.01;90.93;100600.44;680570;1268;140183;-78
2024/02/20 16:55:23;;;;;;;136.70;48.10;;;;;;;9.15;90.78;100611.05;680248;1268;139701;-79
2024/02/20 17:10:31;;;;;;;80.30;37.80;;;;;;;9.03;91.06;100628.89;679733;1268;139462;-79
2024/02/20 17:25:39;;;;;;;43.70;22.80;;;;;;;8.83;93.09;100640.01;680043;1263;139743;-78
2024/02/20 17:40:45;;;;;;;108.50;55.10;;;;;;;8.75;94.16;100650.33;679974;1268;139692;-79
2024/02/20 17:55:49;;;;;;;24.70;12.60;;;;;;;8.60;95.32;100659.95;679859;1266;139620;-80
2024/02/20 18:10:53;;;;;;;25.50;10.20;;;;;;;8.38;95.76;100665.21;678974;1269;140314;-80
2024/02/20 18:25:56;;;;;;;35.80;14.30;;;;;;;8.16;95.10;100677.07;676785;1268;139964;-79
2024/02/20 18:41:01;;;;;;;31.80;12.30;;;;;;;8.03;94.19;100683.38;678745;1268;139580;-78
2024/02/20 18:56:08;;;;;;;24.70;11.70;;;;;;;7.92;93.63;100689.39;679586;1269;139296;-79
2024/02/20 19:11:15;;;;;;;17.40;8.10;;;;;;;7.84;93.54;100687.19;679575;1269;139235;-78
2024/02/20 19:26:20;;;;;;;27.90;11.60;;;;;;;7.81;93.58;100688.25;678902;1269;139788;-79
2024/02/20 19:41:24;;;;;;;26.70;10.60;;;;;;;7.72;94.11;100692.20;679798;1266;139634;-79
2024/02/20 19:56:28;;;;;;;37.50;16.70;;;;;;;7.76;94.29;100698.91;681204;1263;139985;-79
2024/02/20 20:11:32;;;;;;;27.50;10.80;;;;;;;7.68;94.82;100704.81;681603;1263;139455;-79
2024/02/20 20:26:36;;;;;;;37.50;10.10;;;;;;;7.65;94.94;100698.23;681329;1265;139448;-78
2024/02/20 20:41:41;;;;;;;34.70;9.50;;;;;;;7.64;95.05;100695.33;676365;1274;139594;-80
2024/02/20 20:56:47;;;;;;;24.60;7.50;;;;;;;7.53;95.89;100696.65;674279;1263;139442;-80
2024/02/20 21:11:54;;;;;;;32.70;8.50;;;;;;;7.46;96.45;100692.20;677497;1273;139793;-79
2024/02/20 21:26:59;;;;;;;27.30;7.20;;;;;;;7.39;97.46;100698.46;679210;1264;139152;-81
2024/02/20 21:42:03;;;;;;;25.00;8.00;;;;;;;7.41;98.47;100699.05;677415;1263;139427;-80
2024/02/20 21:57:10;;;;;;;15.80;6.00;;;;;;;7.40;99.10;100706.02;679070;1273;139943;-80
2024/02/20 22:12:14;;;;;;;26.80;7.60;;;;;;;7.38;99.67;100703.92;675859;1263;139825;-79
2024/02/20 22:27:17;;;;;;;24.20;8.20;;;;;;;7.36;100.00;100708.89;678224;1261;140279;-80
2024/02/20 22:42:21;;;;;;;26.50;9.00;;;;;;;7.42;100.00;100714.78;676800;1264;139218;-79
2024/02/20 22:57:27;;;;;;;19.50;5.90;;;;;;;7.44;100.00;100712.23;675790;1264;140512;-79
2024/02/20 23:12:30;;;;;;;18.70;7.90;;;;;;;7.45;100.00;100713.14;676842;1260;139835;-80
2024/02/20 23:27:34;;;;;;;22.70;6.40;;;;;;;7.50;100.00;100711.44;679915;1264;138831;-79
2024/02/20 23:42:37;;;;;;;28.30;10.60;;;;;;;7.52;100.00;100703.65;677611;1275;139351;-80
2024/02/20 23:57:42;;;;;;;31.40;11.20;;;;;;;7.49;100.00;100697.58;678413;1263;139460;-79
